D/T METAR WX W/DIR W/SPE G/SPE TEMP DEWP
9/12/19 12:50 EGVO 091250Z 31020G32KT 9999 FEW038 09/01 Q1014 NOSIG RMK BLU BLU NW (310°) 23.0mph 36.8mph 9°C 1°C
9/12/19 12:20 EGVO 091220Z 31019G30KT 9999 FEW030 09/02 Q1013 NOSIG RMK BLU BLU NW (310°) 21.9mph 34.5mph 9°C 2°C
9/12/19 11:50 EGVO 091150Z 31016KT 9999 FEW030 09/03 Q1012 NOSIG RMK BLU BLU NW (310°) 18.4mph 9°C 3°C
9/12/19 11:23 EGVO 091123Z 31019G29KT 9999 FEW020 09/02 Q1012 NOSIG RMK BLU BLU NW (310°) 21.9mph 33.4mph 9°C 2°C
9/12/19 10:50 EGVO 091050Z 31016KT 9999 FEW020 08/03 Q1011 NOSIG RMK BLU BLU NW (310°) 18.4mph 8°C 3°C
9/12/19 10:20 EGVO 091020Z 31016G27KT 9999 FEW020 08/03 Q1010 NOSIG RMK BLU BLU NW (310°) 18.4mph 31.1mph 8°C 3°C
9/12/19 09:50 EGVO 090950Z 30016KT 9999 FEW019 08/03 Q1009 NOSIG RMK BLU BLU WNW (300°) 18.4mph 8°C 3°C
9/12/19 09:20 EGVO 090920Z 31015KT 9999 FEW020 08/03 Q1008 NOSIG RMK BLU BLU NW (310°) 17.3mph 8°C 3°C
9/12/19 08:50 EGVO 090850Z 31017KT 9999 FEW020 SCT030 08/03 Q1006 NOSIG RMK BLU BLU NW (310°) 19.6mph 8°C 3°C
9/12/19 08:20 EGVO 090820Z 31016KT 9999 SCT029 08/04 Q1005 NOSIG RMK BLU BLU NW (310°) 18.4mph 8°C 4°C
9/12/19 07:50 EGVO 090750Z 30017KT 9999 SCT029 08/04 Q1004 NOSIG RMK BLU BLU WNW (300°) 19.6mph 8°C 4°C
9/12/19 07:22 EGVO 090722Z 30017G27KT 9999 BKN030 08/04 Q1002 NOSIG RMK BLU BLU WNW (300°) 19.6mph 31.1mph 8°C 4°C
9/12/19 06:50 EGVO 090650Z 31017KT 9999 OVC030 08/04 Q1001 RMK BLU NW (310°) 19.6mph 8°C 4°C
9/12/19 05:50 EGVO 090550Z 32024G37KT 9999 BKN028 BKN040 08/04 Q0998 RMK BLU NW (320°) 27.6mph 42.6mph 8°C 4°C
9/12/19 04:50 EGVO 090450Z AUTO 28021G31KT 9999 -RA BKN018/// 08/06 Q0995 -RA W (280°) 24.2mph 35.7mph 8°C 6°C
9/12/19 03:50 EGVO 090350Z AUTO 25021KT 9999 -RA FEW023/// BKN031/// 08/05 Q0993 -RA WSW (250°) 24.2mph 8°C 5°C
9/12/19 02:50 EGVO 090250Z AUTO 25020KT 9999 -RA SCT026/// SCT046/// 08/04 Q0993 -RA WSW (250°) 23.0mph 8°C 4°C
9/12/19 01:50 EGVO 090150Z AUTO 25018KT 9999 FEW038/// 07/04 Q0993 WSW (250°) 20.7mph 7°C 4°C
9/12/19 00:50 EGVO 090050Z AUTO 27022G32KT 9999 FEW020/// BKN039/// 08/04 Q0992 RERA W (270°) 25.3mph 36.8mph 8°C 4°C
8/12/19 23:50 EGVO 082350Z AUTO 22020KT 9999 -RA FEW013/// BKN021/// 07/06 Q0991 -RA SW (220°) 23.0mph 7°C 6°C
8/12/19 22:50 EGVO 082250Z AUTO 21016KT 9999 FEW023/// BKN037/// 06/04 Q0992 RERA SSW (210°) 18.4mph 6°C 4°C
8/12/19 21:50 EGVO 082150Z 22018KT 8000 -SHRA BKN030 06/04 Q0994 RMK BLU -SHRA SW (220°) 20.7mph 6°C 4°C
8/12/19 20:50 EGVO 082050Z AUTO 22021KT 9999 FEW090/// BKN120/// 06/03 Q0996 SW (220°) 24.2mph 6°C 3°C
8/12/19 19:50 EGVO 081950Z AUTO 22019KT 9999 NCD 06/02 Q0996 SW (220°) 21.9mph 6°C 2°C
8/12/19 18:50 EGVO 081850Z AUTO 23017KT 9999 FEW027/// 06/03 Q0997 RERA SW (230°) 19.6mph 6°C 3°C
8/12/19 17:50 EGVO 081750Z AUTO 23018KT 9999 SCT039/// 06/03 Q0998 SW (230°) 20.7mph 6°C 3°C
8/12/19 16:50 EGVO 081650Z AUTO 23019KT 9999 FEW100/// 07/04 Q0998 SW (230°) 21.9mph 7°C 4°C
8/12/19 15:50 EGVO 081550Z AUTO 23016KT 9999 FEW032/// BKN160/// 06/04 Q0999 RERA SW (230°) 18.4mph 6°C 4°C
8/12/19 14:50 EGVO 081450Z AUTO 26019G35KT 9999 RA FEW024/// SCT090/// 06/04 Q0999 RA W (260°) 21.9mph 40.3mph 6°C 4°C
8/12/19 13:50 EGVO 081350Z AUTO 23016KT 9999 SCT035/// BKN130/// 09/04 Q1000 SW (230°) 18.4mph 9°C 4°C
8/12/19 12:50 EGVO 081250Z AUTO 24021KT 9999 FEW041/// BKN110/// 09/03 Q1001 WSW (240°) 24.2mph 9°C 3°C
8/12/19 11:50 EGVO 081150Z AUTO 22020KT 9999 NCD 10/06 Q1001 SW (220°) 23.0mph 10°C 6°C
8/12/19 10:50 EGVO 081050Z AUTO 24016KT 9999 FEW023/// SCT070/// 09/06 Q1002 RERA WSW (240°) 18.4mph 9°C 6°C
8/12/19 09:50 EGVO 080950Z AUTO 22016KT 9999 BKN030/// BKN038/// 09/05 Q1002 SW (220°) 18.4mph 9°C 5°C
8/12/19 08:50 EGVO 080850Z AUTO 23016KT 9999 SCT028/// SCT037/// BKN044/// 09/06 Q1002 SW (230°) 18.4mph 9°C 6°C
8/12/19 07:50 EGVO 080750Z AUTO 25018KT 9999 SCT027/// SCT036/// 09/06 Q1001 WSW (250°) 20.7mph 9°C 6°C
8/12/19 06:50 EGVO 080650Z AUTO 25019KT 9999 SCT030/// SCT040/// 10/06 Q1001 WSW (250°) 21.9mph 10°C 6°C
8/12/19 05:50 EGVO 080550Z AUTO 26019G35KT 9999 BKN029/// 10/07 Q1000 W (260°) 21.9mph 40.3mph 10°C 7°C
8/12/19 04:50 EGVO 080450Z AUTO 23021KT 9999 BKN007/// BKN014/// 12/11 Q0999 RERA SW (230°) 24.2mph 12°C 11°C
8/12/19 03:50 EGVO 080350Z AUTO 21022G34KT 2200 RA SCT006/// BKN013/// 11/10 Q1000 RA SSW (210°) 25.3mph 39.1mph 11°C 10°C
8/12/19 02:50 EGVO 080250Z AUTO 20025KT 9999 BKN008/// SCT016/// 11/10 Q1001 RERA SSW (200°) 28.8mph 11°C 10°C
8/12/19 01:50 EGVO 080150Z AUTO 20021G35KT 2700 +RA BKN009/// BKN016/// 10/09 Q1002 +RA SSW (200°) 24.2mph 40.3mph 10°C 9°C
8/12/19 00:50 EGVO 080050Z AUTO 20025KT 9999 -RADZ OVC011/// 10/08 Q1003 -RA -DZ SSW (200°) 28.8mph 10°C 8°C
7/12/19 23:50 EGVO 072350Z AUTO 20022G36KT 9999 BKN009/// 10/08 Q1005 SSW (200°) 25.3mph 41.4mph 10°C 8°C
7/12/19 22:50 EGVO 072250Z AUTO 21018KT 9999 OVC008/// 10/09 Q1007 SSW (210°) 20.7mph 10°C 9°C
7/12/19 21:50 EGVO 072150Z AUTO 21021G35KT 9999 OVC011/// 10/08 Q1008 SSW (210°) 24.2mph 40.3mph 10°C 8°C
7/12/19 20:50 EGVO 072050Z AUTO 20019G29KT 9999 OVC012/// 10/08 Q1009 SSW (200°) 21.9mph 33.4mph 10°C 8°C
7/12/19 19:50 EGVO 071950Z AUTO 21014KT 9999 OVC012/// 10/08 Q1010 SSW (210°) 16.1mph 10°C 8°C